sensor_id;sensor_type;location;lat;lon;timestamp;P1;durP1;ratioP1;P2;durP2;ratioP2
11082;SDS011;5595;50.186;8.468;2023-05-10T00:00:40;0.00;;;0.00;;
11082;SDS011;5595;50.186;8.468;2023-05-10T00:03:07;0.00;;;0.00;;
11082;SDS011;5595;50.186;8.468;2023-05-10T00:05:34;0.00;;;0.00;;
11082;SDS011;5595;50.186;8.468;2023-05-10T00:08:00;0.20;;;0.00;;
11082;SDS011;5595;50.186;8.468;2023-05-10T00:10:27;0.65;;;0.00;;
11082;SDS011;5595;50.186;8.468;2023-05-10T00:12:55;0.00;;;0.00;;
11082;SDS011;5595;50.186;8.468;2023-05-10T00:15:22;0.73;;;0.10;;
11082;SDS011;5595;50.186;8.468;2023-05-10T00:17:49;0.00;;;0.00;;
11082;SDS011;5595;50.186;8.468;2023-05-10T00:20:16;0.00;;;0.00;;
11082;SDS011;5595;50.186;8.468;2023-05-10T00:22:43;0.00;;;0.00;;
11082;SDS011;5595;50.186;8.468;2023-05-10T00:25:10;0.00;;;0.00;;
11082;SDS011;5595;50.186;8.468;2023-05-10T00:27:36;0.00;;;0.00;;
11082;SDS011;5595;50.186;8.468;2023-05-10T00:30:05;0.00;;;0.00;;
11082;SDS011;5595;50.186;8.468;2023-05-10T00:32:33;0.00;;;0.00;;
11082;SDS011;5595;50.186;8.468;2023-05-10T00:35:00;0.00;;;0.00;;
11082;SDS011;5595;50.186;8.468;2023-05-10T00:37:27;0.20;;;0.00;;
11082;SDS011;5595;50.186;8.468;2023-05-10T00:39:53;0.00;;;0.00;;
11082;SDS011;5595;50.186;8.468;2023-05-10T00:42:20;0.00;;;0.00;;
11082;SDS011;5595;50.186;8.468;2023-05-10T00:44:47;0.00;;;0.00;;
11082;SDS011;5595;50.186;8.468;2023-05-10T00:47:16;0.00;;;0.00;;
11082;SDS011;5595;50.186;8.468;2023-05-10T00:49:43;0.00;;;0.00;;
11082;SDS011;5595;50.186;8.468;2023-05-10T00:52:10;0.00;;;0.00;;
11082;SDS011;5595;50.186;8.468;2023-05-10T00:54:37;0.03;;;0.00;;
11082;SDS011;5595;50.186;8.468;2023-05-10T00:57:04;0.00;;;0.00;;
11082;SDS011;5595;50.186;8.468;2023-05-10T00:59:31;0.00;;;0.00;;
11082;SDS011;5595;50.186;8.468;2023-05-10T01:01:58;0.00;;;0.00;;
11082;SDS011;5595;50.186;8.468;2023-05-10T01:04:26;0.88;;;0.00;;
11082;SDS011;5595;50.186;8.468;2023-05-10T01:06:53;0.00;;;0.00;;
11082;SDS011;5595;50.186;8.468;2023-05-10T01:09:20;0.00;;;0.00;;
11082;SDS011;5595;50.186;8.468;2023-05-10T01:11:48;0.00;;;0.00;;
11082;SDS011;5595;50.186;8.468;2023-05-10T01:14:15;0.00;;;0.00;;
11082;SDS011;5595;50.186;8.468;2023-05-10T01:16:45;0.00;;;0.00;;
11082;SDS011;5595;50.186;8.468;2023-05-10T01:19:18;0.00;;;0.00;;
11082;SDS011;5595;50.186;8.468;2023-05-10T01:21:50;0.00;;;0.00;;
11082;SDS011;5595;50.186;8.468;2023-05-10T01:24:37;0.00;;;0.00;;
11082;SDS011;5595;50.186;8.468;2023-05-10T01:30:19;0.00;;;0.00;;
11082;SDS011;5595;50.186;8.468;2023-05-10T01:35:37;0.30;;;0.10;;
11082;SDS011;5595;50.186;8.468;2023-05-10T01:38:11;0.00;;;0.00;;
11082;SDS011;5595;50.186;8.468;2023-05-10T01:40:46;0.00;;;0.00;;
11082;SDS011;5595;50.186;8.468;2023-05-10T01:43:19;0.00;;;0.00;;
11082;SDS011;5595;50.186;8.468;2023-05-10T01:45:53;0.00;;;0.00;;
11082;SDS011;5595;50.186;8.468;2023-05-10T01:48:26;0.00;;;0.00;;
11082;SDS011;5595;50.186;8.468;2023-05-10T01:50:56;0.00;;;0.00;;
11082;SDS011;5595;50.186;8.468;2023-05-10T01:53:24;0.00;;;0.00;;
11082;SDS011;5595;50.186;8.468;2023-05-10T01:55:52;0.00;;;0.00;;
11082;SDS011;5595;50.186;8.468;2023-05-10T01:58:22;0.00;;;0.00;;
11082;SDS011;5595;50.186;8.468;2023-05-10T02:00:53;0.00;;;0.00;;
11082;SDS011;5595;50.186;8.468;2023-05-10T02:03:21;0.70;;;0.08;;
11082;SDS011;5595;50.186;8.468;2023-05-10T02:05:51;0.00;;;0.00;;
11082;SDS011;5595;50.186;8.468;2023-05-10T02:08:19;0.00;;;0.00;;
11082;SDS011;5595;50.186;8.468;2023-05-10T02:10:48;0.70;;;0.00;;
11082;SDS011;5595;50.186;8.468;2023-05-10T02:13:17;0.00;;;0.00;;
11082;SDS011;5595;50.186;8.468;2023-05-10T02:15:45;0.00;;;0.00;;
11082;SDS011;5595;50.186;8.468;2023-05-10T02:18:14;0.08;;;0.00;;
11082;SDS011;5595;50.186;8.468;2023-05-10T02:20:43;0.00;;;0.00;;
11082;SDS011;5595;50.186;8.468;2023-05-10T02:23:12;0.38;;;0.10;;
11082;SDS011;5595;50.186;8.468;2023-05-10T02:25:41;0.00;;;0.00;;
11082;SDS011;5595;50.186;8.468;2023-05-10T02:28:09;0.00;;;0.00;;
11082;SDS011;5595;50.186;8.468;2023-05-10T02:30:37;0.63;;;0.10;;
11082;SDS011;5595;50.186;8.468;2023-05-10T02:33:05;0.03;;;0.00;;
11082;SDS011;5595;50.186;8.468;2023-05-10T02:35:33;0.00;;;0.00;;
11082;SDS011;5595;50.186;8.468;2023-05-10T02:38:00;0.03;;;0.03;;
11082;SDS011;5595;50.186;8.468;2023-05-10T02:40:30;0.00;;;0.00;;
11082;SDS011;5595;50.186;8.468;2023-05-10T02:42:59;0.10;;;0.00;;
11082;SDS011;5595;50.186;8.468;2023-05-10T02:45:28;0.00;;;0.00;;
11082;SDS011;5595;50.186;8.468;2023-05-10T02:47:58;0.00;;;0.00;;
11082;SDS011;5595;50.186;8.468;2023-05-10T02:50:25;0.00;;;0.00;;
11082;SDS011;5595;50.186;8.468;2023-05-10T02:52:56;1.25;;;0.10;;
11082;SDS011;5595;50.186;8.468;2023-05-10T02:55:26;0.05;;;0.05;;
11082;SDS011;5595;50.186;8.468;2023-05-10T02:57:58;0.00;;;0.00;;
11082;SDS011;5595;50.186;8.468;2023-05-10T03:00:26;0.05;;;0.05;;
11082;SDS011;5595;50.186;8.468;2023-05-10T03:02:53;0.10;;;0.10;;
11082;SDS011;5595;50.186;8.468;2023-05-10T03:05:20;0.10;;;0.10;;
11082;SDS011;5595;50.186;8.468;2023-05-10T03:07:48;0.08;;;0.00;;
11082;SDS011;5595;50.186;8.468;2023-05-10T03:10:15;0.00;;;0.00;;
11082;SDS011;5595;50.186;8.468;2023-05-10T03:12:50;0.70;;;0.08;;
11082;SDS011;5595;50.186;8.468;2023-05-10T03:15:25;0.00;;;0.00;;
11082;SDS011;5595;50.186;8.468;2023-05-10T03:18:04;0.00;;;0.00;;
11082;SDS011;5595;50.186;8.468;2023-05-10T03:20:35;0.00;;;0.00;;
11082;SDS011;5595;50.186;8.468;2023-05-10T03:23:08;0.15;;;0.15;;
11082;SDS011;5595;50.186;8.468;2023-05-10T03:25:39;0.00;;;0.00;;
11082;SDS011;5595;50.186;8.468;2023-05-10T03:28:10;2.53;;;0.22;;
11082;SDS011;5595;50.186;8.468;2023-05-10T03:30:38;0.10;;;0.10;;
11082;SDS011;5595;50.186;8.468;2023-05-10T03:33:06;0.00;;;0.00;;
11082;SDS011;5595;50.186;8.468;2023-05-10T03:35:33;0.38;;;0.10;;
11082;SDS011;5595;50.186;8.468;2023-05-10T03:38:00;0.15;;;0.15;;
11082;SDS011;5595;50.186;8.468;2023-05-10T03:40:27;0.10;;;0.10;;
11082;SDS011;5595;50.186;8.468;2023-05-10T03:42:56;0.10;;;0.10;;
11082;SDS011;5595;50.186;8.468;2023-05-10T03:45:25;0.22;;;0.17;;
11082;SDS011;5595;50.186;8.468;2023-05-10T03:47:51;0.08;;;0.08;;
11082;SDS011;5595;50.186;8.468;2023-05-10T03:50:19;3.20;;;0.10;;
11082;SDS011;5595;50.186;8.468;2023-05-10T03:52:46;0.10;;;0.10;;
11082;SDS011;5595;50.186;8.468;2023-05-10T03:55:13;0.38;;;0.10;;
11082;SDS011;5595;50.186;8.468;2023-05-10T03:57:41;0.10;;;0.10;;
11082;SDS011;5595;50.186;8.468;2023-05-10T04:00:08;0.10;;;0.10;;
11082;SDS011;5595;50.186;8.468;2023-05-10T04:02:37;0.20;;;0.20;;
11082;SDS011;5595;50.186;8.468;2023-05-10T04:05:04;0.68;;;0.20;;
11082;SDS011;5595;50.186;8.468;2023-05-10T04:07:32;0.10;;;0.10;;
11082;SDS011;5595;50.186;8.468;2023-05-10T04:09:58;0.10;;;0.10;;
11082;SDS011;5595;50.186;8.468;2023-05-10T04:12:26;0.20;;;0.20;;
11082;SDS011;5595;50.186;8.468;2023-05-10T04:14:56;1.20;;;1.10;;
11082;SDS011;5595;50.186;8.468;2023-05-10T04:17:26;0.22;;;0.20;;
11082;SDS011;5595;50.186;8.468;2023-05-10T04:19:54;0.10;;;0.10;;
11082;SDS011;5595;50.186;8.468;2023-05-10T04:22:22;0.20;;;0.20;;
11082;SDS011;5595;50.186;8.468;2023-05-10T04:24:49;0.32;;;0.10;;
11082;SDS011;5595;50.186;8.468;2023-05-10T04:27:15;0.10;;;0.10;;
11082;SDS011;5595;50.186;8.468;2023-05-10T04:29:42;0.10;;;0.10;;
11082;SDS011;5595;50.186;8.468;2023-05-10T04:32:12;0.55;;;0.32;;
11082;SDS011;5595;50.186;8.468;2023-05-10T04:34:41;0.28;;;0.28;;
11082;SDS011;5595;50.186;8.468;2023-05-10T04:37:09;0.15;;;0.15;;
11082;SDS011;5595;50.186;8.468;2023-05-10T04:39:36;0.22;;;0.22;;
11082;SDS011;5595;50.186;8.468;2023-05-10T04:42:03;1.58;;;0.30;;
11082;SDS011;5595;50.186;8.468;2023-05-10T04:44:30;1.10;;;0.20;;
11082;SDS011;5595;50.186;8.468;2023-05-10T04:46:58;0.20;;;0.20;;
11082;SDS011;5595;50.186;8.468;2023-05-10T04:49:26;0.13;;;0.13;;
11082;SDS011;5595;50.186;8.468;2023-05-10T04:51:52;0.40;;;0.40;;
11082;SDS011;5595;50.186;8.468;2023-05-10T04:54:21;0.20;;;0.20;;
11082;SDS011;5595;50.186;8.468;2023-05-10T04:56:47;0.52;;;0.25;;
11082;SDS011;5595;50.186;8.468;2023-05-10T04:59:14;0.22;;;0.22;;
11082;SDS011;5595;50.186;8.468;2023-05-10T05:01:41;0.40;;;0.40;;
11082;SDS011;5595;50.186;8.468;2023-05-10T05:04:08;1.58;;;0.30;;
11082;SDS011;5595;50.186;8.468;2023-05-10T05:06:35;0.20;;;0.20;;
11082;SDS011;5595;50.186;8.468;2023-05-10T05:09:02;0.40;;;0.40;;
11082;SDS011;5595;50.186;8.468;2023-05-10T05:11:30;0.20;;;0.20;;
11082;SDS011;5595;50.186;8.468;2023-05-10T05:13:57;0.65;;;0.35;;
11082;SDS011;5595;50.186;8.468;2023-05-10T05:16:25;0.38;;;0.30;;
11082;SDS011;5595;50.186;8.468;2023-05-10T05:18:52;0.80;;;0.30;;
11082;SDS011;5595;50.186;8.468;2023-05-10T05:21:19;1.08;;;0.40;;
11082;SDS011;5595;50.186;8.468;2023-05-10T05:23:46;0.32;;;0.32;;
11082;SDS011;5595;50.186;8.468;2023-05-10T05:26:13;0.30;;;0.30;;
11082;SDS011;5595;50.186;8.468;2023-05-10T05:28:41;0.30;;;0.28;;
11082;SDS011;5595;50.186;8.468;2023-05-10T05:31:08;0.20;;;0.20;;
11082;SDS011;5595;50.186;8.468;2023-05-10T05:33:35;0.30;;;0.30;;
11082;SDS011;5595;50.186;8.468;2023-05-10T05:36:03;0.30;;;0.30;;
11082;SDS011;5595;50.186;8.468;2023-05-10T05:38:31;0.20;;;0.20;;
11082;SDS011;5595;50.186;8.468;2023-05-10T05:40:58;1.05;;;0.40;;
11082;SDS011;5595;50.186;8.468;2023-05-10T05:43:26;0.30;;;0.30;;
11082;SDS011;5595;50.186;8.468;2023-05-10T05:46:04;0.20;;;0.20;;
11082;SDS011;5595;50.186;8.468;2023-05-10T05:48:31;0.20;;;0.20;;
11082;SDS011;5595;50.186;8.468;2023-05-10T05:50:58;0.30;;;0.30;;
11082;SDS011;5595;50.186;8.468;2023-05-10T05:53:25;0.32;;;0.32;;
11082;SDS011;5595;50.186;8.468;2023-05-10T05:55:52;0.63;;;0.35;;
11082;SDS011;5595;50.186;8.468;2023-05-10T05:58:20;0.30;;;0.30;;
11082;SDS011;5595;50.186;8.468;2023-05-10T06:00:47;0.30;;;0.30;;
11082;SDS011;5595;50.186;8.468;2023-05-10T06:03:15;0.75;;;0.30;;
11082;SDS011;5595;50.186;8.468;2023-05-10T06:05:42;1.65;;;0.30;;
11082;SDS011;5595;50.186;8.468;2023-05-10T06:08:09;2.97;;;0.50;;
11082;SDS011;5595;50.186;8.468;2023-05-10T06:10:36;0.30;;;0.30;;
11082;SDS011;5595;50.186;8.468;2023-05-10T06:13:03;0.13;;;0.13;;
11082;SDS011;5595;50.186;8.468;2023-05-10T06:15:30;0.30;;;0.30;;
11082;SDS011;5595;50.186;8.468;2023-05-10T06:17:57;0.20;;;0.20;;
11082;SDS011;5595;50.186;8.468;2023-05-10T06:20:26;0.43;;;0.35;;
11082;SDS011;5595;50.186;8.468;2023-05-10T06:22:52;0.40;;;0.32;;
11082;SDS011;5595;50.186;8.468;2023-05-10T06:25:19;0.30;;;0.30;;
11082;SDS011;5595;50.186;8.468;2023-05-10T06:27:49;0.30;;;0.30;;
11082;SDS011;5595;50.186;8.468;2023-05-10T06:30:20;0.10;;;0.10;;
11082;SDS011;5595;50.186;8.468;2023-05-10T06:32:48;0.30;;;0.30;;
11082;SDS011;5595;50.186;8.468;2023-05-10T06:35:15;0.30;;;0.30;;
11082;SDS011;5595;50.186;8.468;2023-05-10T06:37:52;1.85;;;0.30;;
11082;SDS011;5595;50.186;8.468;2023-05-10T06:40:19;2.42;;;0.30;;
11082;SDS011;5595;50.186;8.468;2023-05-10T06:42:46;0.10;;;0.10;;
11082;SDS011;5595;50.186;8.468;2023-05-10T06:45:13;0.10;;;0.10;;
11082;SDS011;5595;50.186;8.468;2023-05-10T06:47:40;0.20;;;0.20;;
11082;SDS011;5595;50.186;8.468;2023-05-10T06:50:08;0.20;;;0.20;;
11082;SDS011;5595;50.186;8.468;2023-05-10T06:52:36;0.30;;;0.30;;
11082;SDS011;5595;50.186;8.468;2023-05-10T06:55:05;0.10;;;0.10;;
11082;SDS011;5595;50.186;8.468;2023-05-10T06:57:33;0.20;;;0.20;;
11082;SDS011;5595;50.186;8.468;2023-05-10T07:00:00;0.20;;;0.20;;
11082;SDS011;5595;50.186;8.468;2023-05-10T07:02:29;0.20;;;0.20;;
11082;SDS011;5595;50.186;8.468;2023-05-10T07:04:55;0.85;;;0.35;;
11082;SDS011;5595;50.186;8.468;2023-05-10T07:07:22;0.75;;;0.28;;
11082;SDS011;5595;50.186;8.468;2023-05-10T07:09:49;0.65;;;0.25;;
11082;SDS011;5595;50.186;8.468;2023-05-10T07:12:17;0.28;;;0.28;;
11082;SDS011;5595;50.186;8.468;2023-05-10T07:14:44;0.30;;;0.20;;
11082;SDS011;5595;50.186;8.468;2023-05-10T07:17:11;0.20;;;0.17;;
11082;SDS011;5595;50.186;8.468;2023-05-10T07:19:38;0.20;;;0.20;;
11082;SDS011;5595;50.186;8.468;2023-05-10T07:22:05;1.38;;;0.40;;
11082;SDS011;5595;50.186;8.468;2023-05-10T07:24:32;0.20;;;0.20;;
11082;SDS011;5595;50.186;8.468;2023-05-10T07:26:59;0.52;;;0.25;;
11082;SDS011;5595;50.186;8.468;2023-05-10T07:29:27;0.20;;;0.20;;
11082;SDS011;5595;50.186;8.468;2023-05-10T07:31:54;0.20;;;0.20;;
11082;SDS011;5595;50.186;8.468;2023-05-10T07:34:21;0.10;;;0.10;;
11082;SDS011;5595;50.186;8.468;2023-05-10T07:36:48;0.20;;;0.20;;
11082;SDS011;5595;50.186;8.468;2023-05-10T07:39:15;0.10;;;0.10;;
11082;SDS011;5595;50.186;8.468;2023-05-10T07:41:42;0.20;;;0.20;;
11082;SDS011;5595;50.186;8.468;2023-05-10T07:44:09;0.43;;;0.30;;
11082;SDS011;5595;50.186;8.468;2023-05-10T07:46:38;0.20;;;0.20;;
11082;SDS011;5595;50.186;8.468;2023-05-10T07:49:04;1.15;;;0.28;;
11082;SDS011;5595;50.186;8.468;2023-05-10T07:51:31;0.20;;;0.20;;
11082;SDS011;5595;50.186;8.468;2023-05-10T07:53:58;0.15;;;0.15;;
11082;SDS011;5595;50.186;8.468;2023-05-10T07:56:26;1.23;;;0.35;;
11082;SDS011;5595;50.186;8.468;2023-05-10T07:58:54;0.30;;;0.30;;
11082;SDS011;5595;50.186;8.468;2023-05-10T08:01:22;0.82;;;0.25;;
11082;SDS011;5595;50.186;8.468;2023-05-10T08:03:51;0.55;;;0.10;;
11082;SDS011;5595;50.186;8.468;2023-05-10T08:06:19;0.57;;;0.30;;
11082;SDS011;5595;50.186;8.468;2023-05-10T08:08:46;0.57;;;0.35;;
11082;SDS011;5595;50.186;8.468;2023-05-10T08:11:15;0.30;;;0.30;;
11082;SDS011;5595;50.186;8.468;2023-05-10T08:13:42;0.43;;;0.30;;
11082;SDS011;5595;50.186;8.468;2023-05-10T08:16:09;0.68;;;0.22;;
11082;SDS011;5595;50.186;8.468;2023-05-10T08:18:37;0.90;;;0.30;;
11082;SDS011;5595;50.186;8.468;2023-05-10T08:21:06;0.20;;;0.20;;
11082;SDS011;5595;50.186;8.468;2023-05-10T08:23:34;0.43;;;0.32;;
11082;SDS011;5595;50.186;8.468;2023-05-10T08:26:00;0.52;;;0.20;;
11082;SDS011;5595;50.186;8.468;2023-05-10T08:28:27;0.30;;;0.20;;
11082;SDS011;5595;50.186;8.468;2023-05-10T08:30:54;0.20;;;0.20;;
11082;SDS011;5595;50.186;8.468;2023-05-10T08:33:21;0.15;;;0.15;;
11082;SDS011;5595;50.186;8.468;2023-05-10T08:35:49;0.45;;;0.20;;
11082;SDS011;5595;50.186;8.468;2023-05-10T08:38:17;1.48;;;0.22;;
11082;SDS011;5595;50.186;8.468;2023-05-10T08:40:44;0.30;;;0.30;;
11082;SDS011;5595;50.186;8.468;2023-05-10T08:43:12;0.45;;;0.30;;
11082;SDS011;5595;50.186;8.468;2023-05-10T08:45:41;4.18;;;0.43;;
11082;SDS011;5595;50.186;8.468;2023-05-10T08:48:10;1.55;;;0.20;;
11082;SDS011;5595;50.186;8.468;2023-05-10T08:50:38;0.52;;;0.32;;
11082;SDS011;5595;50.186;8.468;2023-05-10T08:53:09;0.38;;;0.22;;
11082;SDS011;5595;50.186;8.468;2023-05-10T08:55:52;0.45;;;0.20;;
11082;SDS011;5595;50.186;8.468;2023-05-10T08:58:19;0.55;;;0.20;;
11082;SDS011;5595;50.186;8.468;2023-05-10T09:00:48;1.45;;;0.20;;
11082;SDS011;5595;50.186;8.468;2023-05-10T09:03:16;0.75;;;0.30;;
11082;SDS011;5595;50.186;8.468;2023-05-10T09:05:44;0.47;;;0.40;;
11082;SDS011;5595;50.186;8.468;2023-05-10T09:08:16;0.20;;;0.20;;
11082;SDS011;5595;50.186;8.468;2023-05-10T09:10:56;0.65;;;0.20;;
11082;SDS011;5595;50.186;8.468;2023-05-10T09:13:23;0.30;;;0.20;;
11082;SDS011;5595;50.186;8.468;2023-05-10T09:15:51;0.35;;;0.30;;
11082;SDS011;5595;50.186;8.468;2023-05-10T09:18:20;0.65;;;0.30;;
11082;SDS011;5595;50.186;8.468;2023-05-10T09:20:47;0.20;;;0.20;;
11082;SDS011;5595;50.186;8.468;2023-05-10T09:23:15;0.85;;;0.20;;
11082;SDS011;5595;50.186;8.468;2023-05-10T09:25:44;0.52;;;0.20;;
11082;SDS011;5595;50.186;8.468;2023-05-10T09:28:11;1.88;;;0.35;;
11082;SDS011;5595;50.186;8.468;2023-05-10T09:30:38;1.65;;;0.30;;
11082;SDS011;5595;50.186;8.468;2023-05-10T09:33:05;0.30;;;0.20;;
11082;SDS011;5595;50.186;8.468;2023-05-10T09:35:33;0.20;;;0.20;;
11082;SDS011;5595;50.186;8.468;2023-05-10T09:38:02;1.55;;;0.10;;
11082;SDS011;5595;50.186;8.468;2023-05-10T09:40:30;0.20;;;0.20;;
11082;SDS011;5595;50.186;8.468;2023-05-10T09:42:59;0.45;;;0.30;;
11082;SDS011;5595;50.186;8.468;2023-05-10T09:45:28;0.30;;;0.30;;
11082;SDS011;5595;50.186;8.468;2023-05-10T09:47:57;0.55;;;0.30;;
11082;SDS011;5595;50.186;8.468;2023-05-10T09:50:25;0.57;;;0.15;;
11082;SDS011;5595;50.186;8.468;2023-05-10T09:52:53;0.10;;;0.10;;
11082;SDS011;5595;50.186;8.468;2023-05-10T09:55:24;0.30;;;0.30;;
11082;SDS011;5595;50.186;8.468;2023-05-10T09:58:10;1.15;;;0.30;;
11082;SDS011;5595;50.186;8.468;2023-05-10T10:00:38;0.55;;;0.30;;
11082;SDS011;5595;50.186;8.468;2023-05-10T10:03:07;0.20;;;0.20;;
11082;SDS011;5595;50.186;8.468;2023-05-10T10:05:40;0.30;;;0.20;;
11082;SDS011;5595;50.186;8.468;2023-05-10T10:08:08;0.43;;;0.20;;
11082;SDS011;5595;50.186;8.468;2023-05-10T10:10:36;0.20;;;0.20;;
11082;SDS011;5595;50.186;8.468;2023-05-10T10:13:03;0.20;;;0.20;;
11082;SDS011;5595;50.186;8.468;2023-05-10T10:15:32;0.20;;;0.20;;
11082;SDS011;5595;50.186;8.468;2023-05-10T10:17:59;1.42;;;0.40;;
11082;SDS011;5595;50.186;8.468;2023-05-10T10:20:28;1.67;;;0.25;;
11082;SDS011;5595;50.186;8.468;2023-05-10T10:22:55;1.17;;;0.63;;
11082;SDS011;5595;50.186;8.468;2023-05-10T10:25:22;3.20;;;0.30;;
11082;SDS011;5595;50.186;8.468;2023-05-10T10:27:55;1.40;;;0.45;;
11082;SDS011;5595;50.186;8.468;2023-05-10T10:30:35;0.85;;;0.25;;
11082;SDS011;5595;50.186;8.468;2023-05-10T10:33:18;0.30;;;0.30;;
11082;SDS011;5595;50.186;8.468;2023-05-10T10:36:00;0.90;;;0.20;;
11082;SDS011;5595;50.186;8.468;2023-05-10T10:38:35;0.25;;;0.20;;
11082;SDS011;5595;50.186;8.468;2023-05-10T10:41:08;9.95;;;0.80;;
11082;SDS011;5595;50.186;8.468;2023-05-10T10:43:36;0.47;;;0.47;;
11082;SDS011;5595;50.186;8.468;2023-05-10T10:46:11;0.90;;;0.28;;
11082;SDS011;5595;50.186;8.468;2023-05-10T10:48:39;0.22;;;0.22;;
11082;SDS011;5595;50.186;8.468;2023-05-10T10:51:06;0.55;;;0.20;;
11082;SDS011;5595;50.186;8.468;2023-05-10T10:53:33;0.65;;;0.32;;
11082;SDS011;5595;50.186;8.468;2023-05-10T10:56:07;0.70;;;0.30;;
11082;SDS011;5595;50.186;8.468;2023-05-10T10:58:35;0.10;;;0.10;;
11082;SDS011;5595;50.186;8.468;2023-05-10T11:01:14;0.10;;;0.10;;
11082;SDS011;5595;50.186;8.468;2023-05-10T11:03:54;0.10;;;0.10;;
11082;SDS011;5595;50.186;8.468;2023-05-10T11:06:39;0.10;;;0.10;;
11082;SDS011;5595;50.186;8.468;2023-05-10T11:09:07;0.30;;;0.20;;
11082;SDS011;5595;50.186;8.468;2023-05-10T11:11:38;0.10;;;0.10;;
11082;SDS011;5595;50.186;8.468;2023-05-10T11:14:24;0.10;;;0.10;;
11082;SDS011;5595;50.186;8.468;2023-05-10T11:16:53;0.10;;;0.10;;
11082;SDS011;5595;50.186;8.468;2023-05-10T11:19:20;0.20;;;0.13;;
11082;SDS011;5595;50.186;8.468;2023-05-10T11:21:48;0.57;;;0.22;;
11082;SDS011;5595;50.186;8.468;2023-05-10T11:24:17;0.73;;;0.30;;
11082;SDS011;5595;50.186;8.468;2023-05-10T11:26:45;0.10;;;0.10;;
11082;SDS011;5595;50.186;8.468;2023-05-10T11:29:16;0.10;;;0.10;;
11082;SDS011;5595;50.186;8.468;2023-05-10T11:31:44;1.05;;;0.20;;
11082;SDS011;5595;50.186;8.468;2023-05-10T11:34:15;0.63;;;0.20;;
11082;SDS011;5595;50.186;8.468;2023-05-10T11:36:51;0.10;;;0.10;;
11082;SDS011;5595;50.186;8.468;2023-05-10T11:39:19;0.10;;;0.10;;
11082;SDS011;5595;50.186;8.468;2023-05-10T11:41:47;0.20;;;0.20;;
11082;SDS011;5595;50.186;8.468;2023-05-10T11:44:14;0.10;;;0.10;;
11082;SDS011;5595;50.186;8.468;2023-05-10T11:46:41;0.10;;;0.10;;
11082;SDS011;5595;50.186;8.468;2023-05-10T11:49:08;0.10;;;0.10;;
11082;SDS011;5595;50.186;8.468;2023-05-10T11:51:37;0.35;;;0.00;;
11082;SDS011;5595;50.186;8.468;2023-05-10T11:54:05;0.10;;;0.10;;
11082;SDS011;5595;50.186;8.468;2023-05-10T11:56:33;2.00;;;0.10;;
11082;SDS011;5595;50.186;8.468;2023-05-10T11:59:00;0.55;;;0.10;;
11082;SDS011;5595;50.186;8.468;2023-05-10T12:01:28;0.00;;;0.00;;
11082;SDS011;5595;50.186;8.468;2023-05-10T12:03:55;0.47;;;0.10;;
11082;SDS011;5595;50.186;8.468;2023-05-10T12:06:25;1.95;;;0.10;;
11082;SDS011;5595;50.186;8.468;2023-05-10T12:08:54;0.10;;;0.10;;
11082;SDS011;5595;50.186;8.468;2023-05-10T12:11:24;0.10;;;0.10;;
11082;SDS011;5595;50.186;8.468;2023-05-10T12:13:52;0.10;;;0.10;;
11082;SDS011;5595;50.186;8.468;2023-05-10T12:16:20;0.10;;;0.10;;
11082;SDS011;5595;50.186;8.468;2023-05-10T12:18:48;0.10;;;0.10;;
11082;SDS011;5595;50.186;8.468;2023-05-10T12:21:16;0.10;;;0.10;;
11082;SDS011;5595;50.186;8.468;2023-05-10T12:23:45;0.55;;;0.10;;
11082;SDS011;5595;50.186;8.468;2023-05-10T12:26:13;0.10;;;0.10;;
11082;SDS011;5595;50.186;8.468;2023-05-10T12:28:40;0.20;;;0.08;;
11082;SDS011;5595;50.186;8.468;2023-05-10T12:31:07;1.13;;;0.10;;
11082;SDS011;5595;50.186;8.468;2023-05-10T12:33:35;0.28;;;0.10;;
11082;SDS011;5595;50.186;8.468;2023-05-10T12:36:06;0.00;;;0.00;;
11082;SDS011;5595;50.186;8.468;2023-05-10T12:38:34;0.20;;;0.00;;
11082;SDS011;5595;50.186;8.468;2023-05-10T12:41:03;0.08;;;0.08;;
11082;SDS011;5595;50.186;8.468;2023-05-10T12:43:34;0.17;;;0.10;;
11082;SDS011;5595;50.186;8.468;2023-05-10T12:46:04;0.00;;;0.00;;
11082;SDS011;5595;50.186;8.468;2023-05-10T12:48:32;0.35;;;0.10;;
11082;SDS011;5595;50.186;8.468;2023-05-10T12:51:00;1.85;;;0.10;;
11082;SDS011;5595;50.186;8.468;2023-05-10T12:53:27;0.00;;;0.00;;
11082;SDS011;5595;50.186;8.468;2023-05-10T12:55:54;0.00;;;0.00;;
11082;SDS011;5595;50.186;8.468;2023-05-10T12:58:21;0.00;;;0.00;;
11082;SDS011;5595;50.186;8.468;2023-05-10T13:00:49;0.98;;;0.00;;
11082;SDS011;5595;50.186;8.468;2023-05-10T13:03:17;0.00;;;0.00;;
11082;SDS011;5595;50.186;8.468;2023-05-10T13:08:27;0.10;;;0.10;;
11082;SDS011;5595;50.186;8.468;2023-05-10T13:10:58;3.35;;;0.20;;
11082;SDS011;5595;50.186;8.468;2023-05-10T13:13:28;0.35;;;0.20;;
11082;SDS011;5595;50.186;8.468;2023-05-10T13:15:56;0.32;;;0.10;;
11082;SDS011;5595;50.186;8.468;2023-05-10T13:18:23;0.20;;;0.20;;
11082;SDS011;5595;50.186;8.468;2023-05-10T13:20:51;0.20;;;0.20;;
11082;SDS011;5595;50.186;8.468;2023-05-10T13:23:24;0.20;;;0.10;;
11082;SDS011;5595;50.186;8.468;2023-05-10T13:25:51;0.20;;;0.20;;
11082;SDS011;5595;50.186;8.468;2023-05-10T13:28:17;0.20;;;0.20;;
11082;SDS011;5595;50.186;8.468;2023-05-10T13:30:44;0.10;;;0.10;;
11082;SDS011;5595;50.186;8.468;2023-05-10T13:33:13;0.10;;;0.10;;
11082;SDS011;5595;50.186;8.468;2023-05-10T13:35:40;0.10;;;0.10;;
11082;SDS011;5595;50.186;8.468;2023-05-10T13:38:08;0.10;;;0.10;;
11082;SDS011;5595;50.186;8.468;2023-05-10T13:40:35;0.10;;;0.10;;
11082;SDS011;5595;50.186;8.468;2023-05-10T13:43:02;0.65;;;0.32;;
11082;SDS011;5595;50.186;8.468;2023-05-10T13:45:29;0.22;;;0.10;;
11082;SDS011;5595;50.186;8.468;2023-05-10T13:47:56;0.43;;;0.40;;
11082;SDS011;5595;50.186;8.468;2023-05-10T13:50:26;0.10;;;0.10;;
11082;SDS011;5595;50.186;8.468;2023-05-10T13:52:53;0.47;;;0.10;;
11082;SDS011;5595;50.186;8.468;2023-05-10T13:55:26;0.10;;;0.10;;
11082;SDS011;5595;50.186;8.468;2023-05-10T13:57:53;0.05;;;0.05;;
11082;SDS011;5595;50.186;8.468;2023-05-10T14:00:20;0.08;;;0.05;;
11082;SDS011;5595;50.186;8.468;2023-05-10T14:02:47;0.10;;;0.10;;
11082;SDS011;5595;50.186;8.468;2023-05-10T14:05:14;0.20;;;0.10;;
11082;SDS011;5595;50.186;8.468;2023-05-10T14:07:43;0.08;;;0.08;;
11082;SDS011;5595;50.186;8.468;2023-05-10T14:10:09;0.28;;;0.20;;
11082;SDS011;5595;50.186;8.468;2023-05-10T14:12:36;0.90;;;0.20;;
11082;SDS011;5595;50.186;8.468;2023-05-10T14:15:04;0.08;;;0.08;;
11082;SDS011;5595;50.186;8.468;2023-05-10T14:17:32;3.75;;;0.20;;
11082;SDS011;5595;50.186;8.468;2023-05-10T14:19:59;0.20;;;0.20;;
11082;SDS011;5595;50.186;8.468;2023-05-10T14:22:26;0.47;;;0.20;;
11082;SDS011;5595;50.186;8.468;2023-05-10T14:24:54;0.05;;;0.05;;
11082;SDS011;5595;50.186;8.468;2023-05-10T14:27:21;0.00;;;0.00;;
11082;SDS011;5595;50.186;8.468;2023-05-10T14:29:51;0.08;;;0.00;;
11082;SDS011;5595;50.186;8.468;2023-05-10T14:32:18;0.40;;;0.10;;
11082;SDS011;5595;50.186;8.468;2023-05-10T14:34:45;0.00;;;0.00;;
11082;SDS011;5595;50.186;8.468;2023-05-10T14:37:13;2.95;;;0.10;;
11082;SDS011;5595;50.186;8.468;2023-05-10T14:39:40;0.00;;;0.00;;
11082;SDS011;5595;50.186;8.468;2023-05-10T14:42:09;0.00;;;0.00;;
11082;SDS011;5595;50.186;8.468;2023-05-10T14:44:36;0.98;;;0.10;;
11082;SDS011;5595;50.186;8.468;2023-05-10T14:47:03;0.15;;;0.10;;
11082;SDS011;5595;50.186;8.468;2023-05-10T14:49:30;1.17;;;0.10;;
11082;SDS011;5595;50.186;8.468;2023-05-10T14:51:56;0.13;;;0.00;;
11082;SDS011;5595;50.186;8.468;2023-05-10T14:54:23;0.00;;;0.00;;
11082;SDS011;5595;50.186;8.468;2023-05-10T14:56:50;1.98;;;0.00;;
11082;SDS011;5595;50.186;8.468;2023-05-10T14:59:20;0.10;;;0.10;;
11082;SDS011;5595;50.186;8.468;2023-05-10T15:01:47;0.57;;;0.00;;
11082;SDS011;5595;50.186;8.468;2023-05-10T15:04:14;1.65;;;0.10;;
11082;SDS011;5595;50.186;8.468;2023-05-10T15:06:41;0.00;;;0.00;;
11082;SDS011;5595;50.186;8.468;2023-05-10T15:09:09;0.00;;;0.00;;
11082;SDS011;5595;50.186;8.468;2023-05-10T15:11:36;0.32;;;0.32;;
11082;SDS011;5595;50.186;8.468;2023-05-10T15:14:03;0.10;;;0.10;;
11082;SDS011;5595;50.186;8.468;2023-05-10T15:16:32;0.00;;;0.00;;